Amado Nervo National Airport
MMEP : now visible

Airfield :











YOU CAN JOIN US ON...

 
LOGIN :

Register | Disclaimer

   EN    FR    IT 

 









Legend :    VFR   Marginal VFR   IFR   Intensive IFR   Very Intensive IFR
Visi :
Ceiling :
>= 8 km
>= 3000ft
5 to 8 km
1000 to 3000 ft
1500m to 5 km
500 to 1000 ft
800 to 1500m
200 to 500 ft
< 800m
< 200 ft
Symbols :   Thunderstorms  Fog  Heavy snow  Heavy precipitations  Wind > 20 kt






- Airport Elevation : 3020 ft
- IATA code : TPQ


MMEP - Amado Nervo National

CURRENT METAR :
  • 232258Z 15006KT 7SM -RA SCT020 BKN090 19/19 A2994 RMK 8/460 -RA CONT

EXPIRED METARs :
  • 232215Z 15010KT 3SM +TSRA BKN010CB 19/19 A2995 RMK 8/900 +TSRAB11
  • 232147Z 35006KT 8SM SCT012CB SCT100 26/21 A2993 RMK 8/330 RA 2QUAD
  • 232045Z 00000KT 12SM SCT025TCU SCT100 30/19 A2994 RMK SLP105 57035 966 8/230

TAF TAF MMEP
Valid from the 23 at 18:00 until the 24 at 18:00 UTC


231642Z 2318/2418 33010KT P6SM SCT020 BKN080 BKN250
TEMPO 2321/2401 5SM TSRA BKN020CB
FM240300 00000KT 6SM HZ BKN015 BKN100
TEMPO 2410/2414 3SM BR HZ BKN010 BKN250
FM241600 30006KT P6SM SCT015 SCT120 BKN250



MET'MAP, your aeronautical weather chart ! - Copyright ORBIFLY December 2007 - Disclaimer

ORBIFLY MET'MAP TEAM :

Programming & Development : Alexandra Zaïnal
Concept & Development : Baudouin d'Aumeries
Co-Development & Prog : Marc-Olivier Méhu
Technical & hardware support : Manuel Goepfert

Contact : metmap@orbifly.com




SOURCES & CREDITS :

   NOAA       Earth
Advisory